Map

Track Data

SID SEASON NUMBER BASIN SUBBASIN NAME ISO_TIME NATURE LAT LON WMO_WIND WMO_PRES WMO_AGENCY TRACK_TYPE DIST2LAND LANDFALL IFLAG USA_AGENCY USA_ATCF_ID USA_LAT USA_LON USA_RECORD USA_STATUS USA_WIND USA_PRES USA_SSHS USA_R34_NE USA_R34_SE USA_R34_SW USA_R34_NW USA_R50_NE USA_R50_SE USA_R50_SW USA_R50_NW USA_R64_NE USA_R64_SE USA_R64_SW USA_R64_NW USA_POCI USA_ROCI USA_RMW USA_EYE TOKYO_LAT TOKYO_LON TOKYO_GRADE TOKYO_WIND TOKYO_PRES TOKYO_R50_DIR TOKYO_R50_LONG TOKYO_R50_SHORT TOKYO_R30_DIR TOKYO_R30_LONG TOKYO_R30_SHORT TOKYO_LAND CMA_LAT CMA_LON CMA_CAT CMA_WIND CMA_PRES HKO_LAT HKO_LON HKO_CAT HKO_WIND HKO_PRES NEWDELHI_LAT NEWDELHI_LON NEWDELHI_GRADE NEWDELHI_WIND NEWDELHI_PRES NEWDELHI_CI NEWDELHI_DP NEWDELHI_POCI REUNION_LAT REUNION_LON REUNION_TYPE REUNION_WIND REUNION_PRES REUNION_TNUM REUNION_CI REUNION_RMW REUNION_R34_NE REUNION_R34_SE REUNION_R34_SW REUNION_R34_NW REUNION_R50_NE REUNION_R50_SE REUNION_R50_SW REUNION_R50_NW REUNION_R64_NE REUNION_R64_SE REUNION_R64_SW REUNION_R64_NW BOM_LAT BOM_LON BOM_TYPE BOM_WIND BOM_PRES BOM_TNUM BOM_CI BOM_RMW BOM_R34_NE BOM_R34_SE BOM_R34_SW BOM_R34_NW BOM_R50_NE BOM_R50_SE BOM_R50_SW BOM_R50_NW BOM_R64_NE BOM_R64_SE BOM_R64_SW BOM_R64_NW BOM_ROCI BOM_POCI BOM_EYE BOM_POS_METHOD BOM_PRES_METHOD NADI_LAT NADI_LON NADI_CAT NADI_WIND NADI_PRES WELLINGTON_LAT WELLINGTON_LON WELLINGTON_WIND WELLINGTON_PRES DS824_LAT DS824_LON DS824_STAGE DS824_WIND DS824_PRES TD9636_LAT TD9636_LON TD9636_STAGE TD9636_WIND TD9636_PRES TD9635_LAT TD9635_LON TD9635_WIND TD9635_PRES TD9635_ROCI NEUMANN_LAT NEUMANN_LON NEUMANN_CLASS NEUMANN_WIND NEUMANN_PRES MLC_LAT MLC_LON MLC_CLASS MLC_WIND MLC_PRES USA_GUST BOM_GUST BOM_GUST_PER REUNION_GUST REUNION_GUST_PER USA_SEAHGT USA_SEARAD_NE USA_SEARAD_SE USA_SEARAD_SW USA_SEARAD_NW STORM_SPEED STORM_DIR
2020188N28271 2020 38 NA GM FAY 2020-07-05 12:00:00 DS 27.7000 -88.8000 20 1012 hurdat_atl main 148 142 O_____________ hurdat_atl AL062020 27.7000 -88.8000 LO 20 1012 -3 9 69
2020188N28271 2020 38 NA GM FAY 2020-07-05 15:00:00 DS 27.8647 -88.3071 main 145 145 P_____________ AL062020 27.8647 -88.3071 LO 22 1011 -3 11 68
2020188N28271 2020 38 NA GM FAY 2020-07-05 18:00:00 DS 28.1000 -87.7000 25 1010 hurdat_atl main 168 168 O_____________ hurdat_atl AL062020 28.1000 -87.7000 LO 25 1010 -3 1014 90 40 14 64
2020188N28271 2020 38 NA GM FAY 2020-07-05 21:00:00 DS 28.4558 -86.9282 main 197 118 P_____________ AL062020 28.4558 -86.9282 LO 27 1009 -3 1013 90 35 15 59
2020188N28271 2020 38 NA GM FAY 2020-07-06 00:00:00 DS 28.9000 -86.2000 30 1008 hurdat_atl main 118 44 O_____________ hurdat_atl AL062020 28.9000 -86.2000 LO 30 1008 -3 1012 90 30 14 49
2020188N28271 2020 38 NA GM FAY 2020-07-06 03:00:00 DS 29.3920 -85.7172 main 44 0 P_____________ AL062020 29.3920 -85.7172 LO 30 1008 -3 1012 90 30 12 35
2020188N28271 2020 38 NA GM FAY 2020-07-06 06:00:00 DS 29.9000 -85.4000 30 1008 hurdat_atl main 0 0 O_____________ hurdat_atl AL062020 29.9000 -85.4000 LO 30 1008 -3 1012 90 30 11 26
2020188N28271 2020 38 NA NA FAY 2020-07-06 09:00:00 DS 30.3723 -85.1694 main 0 0 P_____________ AL062020 30.3723 -85.1694 LO 25 1009 -3 1013 145 30 10 21
2020188N28271 2020 38 NA NA FAY 2020-07-06 12:00:00 DS 30.8000 -85.0000 20 1011 hurdat_atl main 0 0 O_____________ hurdat_atl AL062020 30.8000 -85.0000 LO 20 1011 -3 1014 200 30 9 22
2020188N28271 2020 38 NA NA FAY 2020-07-06 15:00:00 DS 31.1650 -84.7998 main 0 0 P_____________ AL062020 31.1650 -84.7998 LO 20 1012 -3 1014 200 30 8 26
2020188N28271 2020 38 NA NA FAY 2020-07-06 18:00:00 DS 31.5000 -84.6000 20 1013 hurdat_atl main 0 0 O_____________ hurdat_atl AL062020 31.5000 -84.6000 LO 20 1013 -3 1015 200 30 8 26
2020188N28271 2020 38 NA NA FAY 2020-07-06 21:00:00 DS 31.8574 -84.4073 main 0 0 P_____________ AL062020 31.8574 -84.4073 LO 20 1013 -3 1014 150 30 8 26
2020188N28271 2020 38 NA NA FAY 2020-07-07 00:00:00 DS 32.2000 -84.2000 20 1013 hurdat_atl main 0 0 O_____________ hurdat_atl AL062020 32.2000 -84.2000 LO 20 1013 -3 1014 100 30 8 30
2020188N28271 2020 38 NA NA FAY 2020-07-07 03:00:00 DS 32.5150 -83.9574 main 0 0 P_____________ AL062020 32.5150 -83.9574 LO 20 1013 -3 1015 105 30 7 35
2020188N28271 2020 38 NA NA FAY 2020-07-07 06:00:00 DS 32.8000 -83.7000 20 1014 hurdat_atl main 0 0 O_____________ hurdat_atl AL062020 32.8000 -83.7000 LO 20 1014 -3 1016 110 30 7 35
2020188N28271 2020 38 NA NA FAY 2020-07-07 09:00:00 DS 33.0948 -83.4651 main 0 0 P_____________ AL062020 33.0948 -83.4651 LO 20 1014 -3 1016 105 30 7 40
2020188N28271 2020 38 NA NA FAY 2020-07-07 12:00:00 DS 33.3000 -83.2000 20 1014 hurdat_atl main 0 0 O_____________ hurdat_atl AL062020 33.3000 -83.2000 LO 20 1014 -3 1016 100 30 5 64
2020188N28271 2020 38 NA NA FAY 2020-07-07 15:00:00 DS 33.3374 -82.8796 main 0 0 P_____________ AL062020 33.3374 -82.8796 LO 20 1014 -3 1016 100 30 6 90
2020188N28271 2020 38 NA NA FAY 2020-07-07 18:00:00 DS 33.3000 -82.5000 20 1014 hurdat_atl main 0 0 O_____________ hurdat_atl AL062020 33.3000 -82.5000 LO 20 1014 -3 1016 100 30 30 7 93
2020188N28271 2020 38 NA NA FAY 2020-07-07 21:00:00 DS 33.2998 -82.0800 main 0 0 P_____________ AL062020 33.2998 -82.0800 LO 20 1013 -3 1016 100 30 8 90
2020188N28271 2020 38 NA NA FAY 2020-07-08 00:00:00 DS 33.3000 -81.6000 20 1013 hurdat_atl main 0 0 O_____________ hurdat_atl AL062020 33.3000 -81.6000 LO 20 1013 -3 1016 100 30 30 8 90
2020188N28271 2020 38 NA NA FAY 2020-07-08 03:00:00 DS 33.2997 -81.0800 main 0 0 P_____________ AL062020 33.2997 -81.0800 LO 20 1012 -3 1016 100 30 9 90
2020188N28271 2020 38 NA NA FAY 2020-07-08 06:00:00 DS 33.3000 -80.5000 20 1012 hurdat_atl main 0 0 O_____________ hurdat_atl AL062020 33.3000 -80.5000 LO 20 1012 -3 1016 100 30 10 92
2020188N28271 2020 38 NA NA FAY 2020-07-08 09:00:00 DS 33.2699 -79.8643 main 0 0 P_____________ AL062020 33.2699 -79.8643 LO 20 1011 -3 1015 140 65 11 90
2020188N28271 2020 38 NA NA FAY 2020-07-08 12:00:00 DS 33.3000 -79.2000 20 1011 hurdat_atl main 0 0 O_____________ hurdat_atl AL062020 33.3000 -79.2000 LO 20 1011 -3 1015 180 100 30 11 79
2020188N28271 2020 38 NA NA FAY 2020-07-08 15:00:00 DS 33.4852 -78.5134 main 43 22 P_____________ AL062020 33.4852 -78.5134 LO 22 1010 -3 1014 190 110 12 70
2020188N28271 2020 38 NA NA FAY 2020-07-08 18:00:00 DS 33.7000 -77.9000 25 1010 hurdat_atl main 24 24 O_____________ hurdat_atl AL062020 33.7000 -77.9000 LO 25 1010 -3 1014 200 120 35 10 70
2020188N28271 2020 38 NA NA FAY 2020-07-08 21:00:00 DS 33.8147 -77.4246 main 56 56 P_____________ AL062020 33.8147 -77.4246 LO 25 1009 -3 1014 200 120 7 73
2020188N28271 2020 38 NA NA FAY 2020-07-09 00:00:00 DS 33.9000 -77.1000 25 1009 hurdat_atl main 70 66 O_____________ hurdat_atl AL062020 33.9000 -77.1000 LO 25 1009 -3 1014 200 120 35 5 66
2020188N28271 2020 38 NA NA FAY 2020-07-09 03:00:00 DS 34.0148 -76.8899 main 72 66 P_____________ AL062020 34.0148 -76.8899 LO 25 1008 -3 1014 200 120 3 51
2020188N28271 2020 38 NA NA FAY 2020-07-09 06:00:00 DS 34.1000 -76.8000 25 1008 hurdat_atl main 66 63 O_____________ hurdat_atl AL062020 34.1000 -76.8000 LO 25 1008 -3 1014 200 120 35 0 0
2020188N28271 2020 38 NA NA FAY 2020-07-09 09:00:00 DS 34.0163 -76.9176 main 72 63 P_____________ AL062020 34.0163 -76.9176 LO 27 1007 -3 1013 205 120 0 0
2020188N28271 2020 38 NA NA FAY 2020-07-09 12:00:00 DS 34.1000 -76.8000 30 1007 hurdat_atl main 66 34 O_____________ hurdat_atl AL062020 34.1000 -76.8000 LO 30 1007 -3 1012 210 120 35 11 52
2020188N28271 2020 38 NA NA FAY 2020-07-09 15:00:00 DS 34.7086 -75.8643 main 42 42 P_____________ AL062020 34.7086 -75.8643 LO 35 1006 -3 50 60 1011 210 85 20 50
2020188N28271 2020 38 NA NA FAY 2020-07-09 18:00:00 TS 35.4000 -74.9000 40 1006 hurdat_atl main 70 70 O_____________ hurdat_atl AL062020 35.4000 -74.9000 TS 40 1006 0 100 120 1011 210 50 50 14 43
2020188N28271 2020 38 NA NA FAY 2020-07-09 21:00:00 TS 35.7362 -74.7048 main 72 63 P_____________ AL062020 35.7362 -74.7048 TS 40 1005 0 100 120 1010 200 50 6 8
2020188N28271 2020 38 NA NA FAY 2020-07-10 00:00:00 TS 36.0000 -74.8000 40 1005 hurdat_atl main 66 66 O_____________ hurdat_atl AL062020 36.0000 -74.8000 TS 40 1005 0 100 120 1010 190 50 50 12 90 90 6 353
2020188N28271 2020 38 NA NA FAY 2020-07-10 03:00:00 TS 36.3775 -74.7998 main 83 83 P_____________ AL062020 36.3775 -74.7998 TS 42 1004 0 110 120 1010 185 55 12 105 105 8 1
2020188N28271 2020 38 NA NA FAY 2020-07-10 06:00:00 TS 36.8000 -74.8000 45 1004 hurdat_atl main 99 86 O_____________ hurdat_atl AL062020 36.8000 -74.8000 TS 45 1004 0 120 120 1010 180 60 55 12 120 120 8 0
2020188N28271 2020 38 NA NA FAY 2020-07-10 09:00:00 TS 37.2200 -74.7722 main 86 68 P_____________ AL062020 37.2200 -74.7722 TS 47 1001 0 120 120 1010 180 60 12 120 120 9 5
2020188N28271 2020 38 NA NA FAY 2020-07-10 12:00:00 TS 37.7000 -74.7000 50 998 hurdat_atl main 68 48 O_____________ hurdat_atl AL062020 37.7000 -74.7000 TS 50 998 0 120 120 70 90 1011 180 60 55 12 120 120 10 11
2020188N28271 2020 38 NA NA FAY 2020-07-10 15:00:00 TS 38.2458 -74.5287 main 53 34 P_____________ AL062020 38.2458 -74.5287 TS 50 998 0 120 120 55 90 1010 165 75 12 120 150 12 11
2020188N28271 2020 38 NA NA FAY 2020-07-10 18:00:00 TS 38.9000 -74.4000 50 998 hurdat_atl main 34 8 O_____________ hurdat_atl AL062020 38.9000 -74.4000 TS 50 998 0 120 120 40 40 90 1010 150 90 60 12 120 180 90 14 5
2020188N28271 2020 38 NA NA FAY 2020-07-10 20:00:00 TS 39.4000 -74.4000 45 999 hurdat_atl main 8 0 V_____________ hurdat_atl AL062020 39.4000 -74.4000 L TS 45 999 0 120 120 40 40 1010 150 90 12 113 173 83 14 2
2020188N28271 2020 38 NA NA FAY 2020-07-10 21:00:00 TS 39.6183 -74.3842 main 0 0 P_____________ AL062020 39.6183 -74.3842 TS 42 999 0 120 120 1009 150 90 12 110 170 80 12 6
2020188N28271 2020 38 NA NA FAY 2020-07-11 00:00:00 TS 40.2000 -74.3000 35 1000 hurdat_atl main 0 0 O_____________ hurdat_atl AL062020 40.2000 -74.3000 TS 35 1000 0 120 120 1009 150 90 45 12 100 160 70 12 5
2020188N28271 2020 38 NA NA FAY 2020-07-11 03:00:00 TS 40.7983 -74.2520 main 0 0 P_____________ AL062020 40.7983 -74.2520 TS 32 1000 -1 1008 135 90 13 4
2020188N28271 2020 38 NA NA FAY 2020-07-11 06:00:00 DS 41.5000 -74.2000 30 1001 hurdat_atl main 0 0 O_____________ hurdat_atl AL062020 41.5000 -74.2000 LO 30 1001 -3 1007 120 90 40 16 4
2020188N28271 2020 38 NA NA FAY 2020-07-11 09:00:00 DS 42.3976 -74.1076 main 0 0 P_____________ AL062020 42.3976 -74.1076 LO 27 1001 -3 1005 120 90 19 4
2020188N28271 2020 38 NA NA FAY 2020-07-11 12:00:00 DS 43.4000 -74.0000 25 1001 hurdat_atl main 0 0 O_____________ hurdat_atl AL062020 43.4000 -74.0000 LO 25 1001 -3 1004 120 90 20 4
2020188N28271 2020 38 NA NA FAY 2020-07-11 15:00:00 DS 44.4050 -73.8979 main 0 0 P_____________ AL062020 44.4050 -73.8979 LO 22 1000 -3 1002 120 90 20 4
2020188N28271 2020 38 NA NA FAY 2020-07-11 18:00:00 DS 45.4000 -73.8000 20 999 hurdat_atl main 0 O_____________ hurdat_atl AL062020 45.4000 -73.8000 LO 20 999 -3 1001 120 90 20 4

About IBTrACS Database

This database is a web-friendly format of International Best Track Archive for Climate Stewardship (IBTrACS), a global best track data archive curated by NOAA dating back to 1842.

Updated: 2021-12-03